Viking Queen — WDB9919 — position and weather

sailwx.info

Track history (hours):
 
Tides and Currents Weather Stations Pressure Air Temp Water Temp Dewpoint Dewpoint Depression Visibility Wind Speed Wind Dir Waves Ship Positions

Viking Queen

Owner: American River Transportation Company, St Louis, MO. More information available from US FCC via Universal Licensing System and Coast Guard Vessel Documentation Center.

Last reported at 2014-Nov-21 11:08 UTC. Time now 2014-Nov-28 02:59 UTC.
Position N 30°13' W 091°10'.

Length 55 m; draft 3.2 m.

Type: Towing. MMSI: 366985050.

Date/timePositionNaut miles runAvg speedWind from/ knotsBaromVisibWave heightAir tempDewpointWater temp
2014-Nov-21 11:08N 30°13' W 091°10'9 3.3
2014-Nov-21 08:32N 30°08' W 091°02'13 3.8
2014-Nov-21 05:11N 30°00' W 090°50'3 4.2
2014-Nov-21 04:32N 30°00' W 090°47'30 3.2
2014-Nov-20 19:11N 29°56' W 090°13'17 2.8
2014-Nov-20 13:13N 30°03' W 090°31'14 6.6
2014-Nov-20 11:09N 30°01' W 090°46'8 4.5
2014-Nov-20 09:19N 30°05' W 090°55'3 3.0
2014-Nov-20 08:26N 30°07' W 090°57'  
Track history (hours):
 
Tides and Currents Weather Stations Pressure Air Temp Water Temp Dewpoint Dewpoint Depression Visibility Wind Speed Wind Dir Waves Ship Positions

Viking Queen

Owner: American River Transportation Company, St Louis, MO. More information available from US FCC via Universal Licensing System and Coast Guard Vessel Documentation Center.

Last reported at 2014-Nov-21 11:08 UTC. Time now 2014-Nov-28 02:59 UTC.
Position N 30°13' W 091°10'.

Length 55 m; draft 3.2 m.

Type: Towing. MMSI: 366985050.

Date/timePositionNaut miles runAvg speedWind from/ knotsBaromVisibWave heightAir tempDewpointWater temp
2014-Nov-21 11:08N 30°13' W 091°10'9 3.3
2014-Nov-21 08:32N 30°08' W 091°02'13 3.8
2014-Nov-21 05:11N 30°00' W 090°50'3 4.2
2014-Nov-21 04:32N 30°00' W 090°47'30 3.2
2014-Nov-20 19:11N 29°56' W 090°13'17 2.8
2014-Nov-20 13:13N 30°03' W 090°31'14 6.6
2014-Nov-20 11:09N 30°01' W 090°46'8 4.5
2014-Nov-20 09:19N 30°05' W 090°55'3 3.0
2014-Nov-20 08:26N 30°07' W 090°57'  

Dump ship's entire track history